Time;durP1;ratioP1;P1;durP2;ratioP2;P2;SDS_P1;SDS_P2;PMS_P1;PMS_P2;Temp;Humidity;BMP_temperature;BMP_pressure;BME280_temperature;BME280_humidity;BME280_pressure;Samples;Min_cycle;Max_cycle;Signal;HPM_P1;HPM_P2
2022/04/06 00:02:21;;;;;;;19.35;4.65;;;;;;;9.66;100.00;100592.88;5258425;28;20030;-81
2022/04/06 00:04:52;;;;;;;25.17;5.28;;;;;;;9.63;100.00;100587.84;5235941;28;20078;-81
2022/04/06 00:07:23;;;;;;;25.60;5.65;;;;;;;9.62;100.00;100593.38;5275491;28;20479;-81
2022/04/06 00:09:53;;;;;;;18.67;4.65;;;;;;;9.60;100.00;100591.69;5224810;28;20111;-80
2022/04/06 00:12:24;;;;;;;30.30;6.03;;;;;;;9.61;100.00;100589.84;5269002;28;20031;-81
2022/04/06 00:14:54;;;;;;;20.73;4.90;;;;;;;9.60;100.00;100583.66;5268397;28;20020;-80
2022/04/06 00:17:25;;;;;;;26.60;4.60;;;;;;;9.53;100.00;100590.66;5251143;28;20024;-80
2022/04/06 00:19:55;;;;;;;16.77;4.80;;;;;;;9.58;100.00;100579.47;5250983;28;20020;-80
2022/04/06 00:22:26;;;;;;;18.65;4.03;;;;;;;9.55;100.00;100586.00;5268218;28;20045;-80
2022/04/06 00:24:58;;;;;;;24.73;6.68;;;;;;;9.56;100.00;100576.97;5250475;28;20084;-81
2022/04/06 00:27:28;;;;;;;19.10;4.90;;;;;;;9.57;100.00;100584.00;5237231;28;20038;-79
2022/04/06 00:29:59;;;;;;;19.80;4.45;;;;;;;9.56;100.00;100570.78;5268540;28;20015;-80
2022/04/06 00:32:30;;;;;;;24.70;5.20;;;;;;;9.50;100.00;100583.00;5268311;28;20069;-81
2022/04/06 00:37:49;;;;;;;22.10;4.50;;;;;;;9.49;100.00;100570.59;5253103;28;20020;-80
2022/04/06 00:40:20;;;;;;;25.02;5.78;;;;;;;9.48;100.00;100571.59;5230745;28;20039;-81
2022/04/06 00:42:53;;;;;;;20.50;5.32;;;;;;;9.48;100.00;100570.75;5250492;28;20032;-81
2022/04/06 00:45:24;;;;;;;19.73;5.07;;;;;;;9.40;100.00;100574.28;5249027;28;20042;-81
2022/04/06 00:47:55;;;;;;;22.17;5.90;;;;;;;9.45;100.00;100563.06;5268048;28;20036;-81
2022/04/06 00:50:25;;;;;;;29.60;5.93;;;;;;;9.38;100.00;100564.72;5267406;28;20074;-80
2022/04/06 00:52:57;;;;;;;19.48;5.18;;;;;;;9.42;100.00;100558.88;5267900;28;20026;-81
2022/04/06 00:55:45;;;;;;;24.27;5.28;;;;;;;9.38;100.00;100551.31;5222676;28;20024;-80
2022/04/06 00:58:16;;;;;;;22.40;6.32;;;;;;;9.36;100.00;100559.53;5249599;28;20444;-80
2022/04/06 01:00:46;;;;;;;22.10;5.38;;;;;;;9.41;100.00;100556.38;5267820;28;20095;-81
2022/04/06 01:03:17;;;;;;;25.52;4.55;;;;;;;9.36;100.00;100554.19;5267567;28;20020;-80
2022/04/06 01:05:47;;;;;;;25.13;6.93;;;;;;;9.32;100.00;100547.47;5242263;28;20020;-79
2022/04/06 01:08:18;;;;;;;20.92;4.78;;;;;;;9.25;100.00;100549.16;5249108;28;20032;-80
2022/04/06 01:10:49;;;;;;;24.20;5.65;;;;;;;9.30;100.00;100560.22;5267308;28;20179;-81
2022/04/06 01:13:20;;;;;;;19.85;4.85;;;;;;;9.32;100.00;100552.84;5249084;28;20031;-80
2022/04/06 01:15:50;;;;;;;18.17;5.15;;;;;;;9.31;100.00;100543.13;5248858;28;20024;-80
2022/04/06 01:18:20;;;;;;;26.45;4.18;;;;;;;9.26;100.00;100538.28;5249333;28;20026;-80
2022/04/06 01:20:51;;;;;;;19.42;4.03;;;;;;;9.29;100.00;100543.31;5266499;28;20028;-80
2022/04/06 01:23:21;;;;;;;12.95;4.50;;;;;;;9.29;100.00;100539.81;5251826;28;20094;-80
2022/04/06 01:25:52;;;;;;;24.60;4.90;;;;;;;9.26;100.00;100538.28;5257440;28;20034;-80
2022/04/06 01:28:24;;;;;;;15.50;3.78;;;;;;;9.22;100.00;100539.59;5248912;28;20445;-81
2022/04/06 01:30:54;;;;;;;12.80;3.70;;;;;;;9.22;100.00;100528.06;5266314;28;20077;-80
2022/04/06 01:33:25;;;;;;;23.88;3.72;;;;;;;9.21;100.00;100537.94;5247703;28;20028;-80
2022/04/06 01:35:56;;;;;;;17.58;3.75;;;;;;;9.22;100.00;100526.22;5252299;28;20048;-80
2022/04/06 01:38:28;;;;;;;18.50;3.20;;;;;;;9.29;100.00;100526.41;5249110;28;20077;-81
2022/04/06 01:40:58;;;;;;;13.13;2.65;;;;;;;9.26;100.00;100518.69;5263395;28;20491;-80
2022/04/06 01:43:29;;;;;;;22.83;3.38;;;;;;;9.34;100.00;100530.25;5248626;28;20050;-81
2022/04/06 01:46:01;;;;;;;19.08;4.07;;;;;;;9.34;100.00;100527.59;5250665;28;20028;-80
2022/04/06 01:48:32;;;;;;;11.93;2.92;;;;;;;9.38;100.00;100528.06;5268346;28;20065;-80
2022/04/06 01:54:03;;;;;;;15.82;3.42;;;;;;;9.36;100.00;100521.22;5268018;28;20020;-79
2022/04/06 01:56:34;;;;;;;19.70;3.58;;;;;;;9.41;100.00;100521.56;5250307;28;20115;-81
2022/04/06 01:59:05;;;;;;;22.92;3.50;;;;;;;9.39;100.00;100519.06;5234001;28;20095;-81
2022/04/06 02:01:36;;;;;;;22.17;3.78;;;;;;;9.37;100.00;100514.84;5250285;28;20030;-81
2022/04/06 02:04:13;;;;;;;17.35;2.90;;;;;;;9.36;100.00;100515.88;5261848;28;20503;-80
2022/04/06 02:06:44;;;;;;;14.18;4.18;;;;;;;9.35;100.00;100512.34;5249605;28;20119;-81
2022/04/06 02:09:15;;;;;;;22.23;3.97;;;;;;;9.35;100.00;100507.00;5250133;28;20522;-81
2022/04/06 02:11:47;;;;;;;16.77;3.63;;;;;;;9.40;100.00;100507.34;5250545;28;20032;-80
2022/04/06 02:14:18;;;;;;;16.35;3.88;;;;;;;9.37;100.00;100504.16;5267092;28;20537;-80
2022/04/06 02:16:49;;;;;;;19.95;5.13;;;;;;;9.41;100.00;100498.28;5268698;28;20036;-80
2022/04/06 02:19:19;;;;;;;30.58;4.70;;;;;;;9.33;100.00;100495.59;5272271;28;20149;-80
2022/04/06 02:21:50;;;;;;;18.10;4.18;;;;;;;9.32;100.00;100496.63;5253571;28;20493;-80
2022/04/06 02:24:21;;;;;;;20.67;3.78;;;;;;;9.32;100.00;100499.28;5271085;28;20054;-80
2022/04/06 02:26:51;;;;;;;19.80;3.53;;;;;;;9.32;100.00;100485.91;5272083;28;20020;-81
2022/04/06 02:29:22;;;;;;;18.67;3.72;;;;;;;9.36;100.00;100483.75;5272154;28;20174;-78
2022/04/06 02:31:52;;;;;;;23.88;4.45;;;;;;;9.31;100.00;100484.25;5271695;28;20015;-79
2022/04/06 02:34:23;;;;;;;19.88;4.05;;;;;;;9.30;100.00;100485.25;5243653;28;20024;-79
2022/04/06 02:36:53;;;;;;;22.80;3.83;;;;;;;9.34;100.00;100491.94;5247452;28;20108;-79
2022/04/06 02:39:24;;;;;;;16.52;2.92;;;;;;;9.28;100.00;100489.91;5271341;28;20498;-78
2022/04/06 02:41:54;;;;;;;21.45;4.03;;;;;;;9.27;100.00;100493.59;5267138;28;20027;-80
2022/04/06 02:44:25;;;;;;;24.92;4.63;;;;;;;9.30;100.00;100502.16;5270776;28;20054;-80
2022/04/06 02:46:55;;;;;;;13.02;3.60;;;;;;;9.31;100.00;100490.44;5253084;28;20479;-79
2022/04/06 02:49:26;;;;;;;13.45;4.13;;;;;;;9.20;100.00;100495.28;5271155;28;20078;-80
2022/04/06 02:51:57;;;;;;;20.08;4.10;;;;;;;9.17;100.00;100482.22;5253033;28;20406;-80
2022/04/06 02:54:27;;;;;;;18.33;4.70;;;;;;;9.24;100.00;100477.91;5252275;28;20119;-79
2022/04/06 02:56:58;;;;;;;28.98;6.30;;;;;;;9.22;100.00;100472.69;5271006;28;20036;-81
2022/04/06 02:59:28;;;;;;;25.38;5.22;;;;;;;9.21;100.00;100475.53;5270991;28;20040;-80
2022/04/06 03:01:59;;;;;;;22.20;5.28;;;;;;;9.27;100.00;100472.19;5252539;28;20035;-78
2022/04/06 03:04:29;;;;;;;18.88;5.10;;;;;;;9.26;100.00;100473.19;5262860;28;20021;-79
2022/04/06 03:06:59;;;;;;;29.30;6.05;;;;;;;9.18;100.00;100467.81;5270429;28;20430;-79
2022/04/06 03:09:30;;;;;;;21.05;6.47;;;;;;;9.18;100.00;100460.63;5270361;28;20024;-79
2022/04/06 03:12:00;;;;;;;21.90;5.57;;;;;;;9.23;100.00;100465.50;5252311;28;20475;-78
2022/04/06 03:14:31;;;;;;;21.27;6.75;;;;;;;9.24;100.00;100462.66;5269321;28;20026;-79
2022/04/06 03:17:01;;;;;;;20.10;5.70;;;;;;;9.19;100.00;100462.31;5251825;28;20024;-79
2022/04/06 03:19:32;;;;;;;80.10;27.08;;;;;;;9.20;100.00;100457.81;5251931;28;20055;-79
2022/04/06 03:22:03;;;;;;;28.50;5.78;;;;;;;9.15;100.00;100455.63;5262676;28;20027;-79
2022/04/06 03:24:33;;;;;;;22.17;5.93;;;;;;;9.16;100.00;100457.28;5275757;28;20034;-79
2022/04/06 03:27:04;;;;;;;22.58;6.30;;;;;;;9.11;100.00;100456.13;5273561;28;20118;-79
2022/04/06 03:29:34;;;;;;;34.75;10.32;;;;;;;9.11;100.00;100448.09;5233785;28;20024;-79
2022/04/06 03:32:07;;;;;;;19.35;5.40;;;;;;;9.13;100.00;100452.25;5269102;28;20398;-79
2022/04/06 03:34:38;;;;;;;27.42;7.57;;;;;;;9.19;100.00;100442.75;5257633;28;20104;-79
2022/04/06 03:37:08;;;;;;;21.42;5.82;;;;;;;9.16;100.00;100448.44;5248176;28;20550;-79
2022/04/06 03:39:39;;;;;;;24.33;5.85;;;;;;;9.13;100.00;100444.25;5268856;28;20429;-79
2022/04/06 03:42:09;;;;;;;19.33;4.57;;;;;;;9.16;100.00;100441.25;5248695;28;20071;-79
2022/04/06 03:44:40;;;;;;;24.92;5.40;;;;;;;9.15;100.00;100446.78;5250381;28;20047;-79
2022/04/06 03:47:10;;;;;;;15.60;4.53;;;;;;;9.12;100.00;100442.56;5268843;28;20110;-79
2022/04/06 03:49:41;;;;;;;15.95;5.45;;;;;;;9.15;100.00;100450.28;5269073;28;20060;-79
2022/04/06 03:52:11;;;;;;;19.73;4.38;;;;;;;9.12;100.00;100439.06;5250810;28;20051;-79
2022/04/06 03:54:46;;;;;;;41.00;6.40;;;;;;;9.11;100.00;100448.09;5268538;28;20035;-78
2022/04/06 03:57:17;;;;;;;26.15;5.47;;;;;;;9.15;100.00;100438.75;5257610;28;20501;-79
2022/04/06 03:59:48;;;;;;;20.17;4.25;;;;;;;9.12;100.00;100447.09;5275751;28;20099;-79
2022/04/06 04:02:18;;;;;;;22.70;4.32;;;;;;;9.15;100.00;100444.09;5271552;28;20391;-79
2022/04/06 04:04:49;;;;;;;25.48;4.50;;;;;;;9.17;100.00;100434.03;5260896;28;20069;-78
2022/04/06 04:07:21;;;;;;;35.42;17.70;;;;;;;9.09;100.00;100434.91;5250694;28;20024;-79
2022/04/06 04:09:51;;;;;;;20.17;7.35;;;;;;;9.12;100.00;100429.19;5250631;28;20024;-79
2022/04/06 04:12:22;;;;;;;15.43;4.38;;;;;;;9.16;100.00;100435.88;5269183;28;20493;-82
2022/04/06 04:14:52;;;;;;;22.65;4.95;;;;;;;9.19;100.00;100429.38;5233563;28;20103;-77
2022/04/06 04:17:22;;;;;;;20.08;4.43;;;;;;;9.18;100.00;100419.66;5268252;28;20044;-80
2022/04/06 04:19:53;;;;;;;14.13;3.85;;;;;;;9.18;100.00;100415.13;5268022;28;20061;-81
2022/04/06 04:22:23;;;;;;;11.90;3.40;;;;;;;9.16;100.00;100425.19;5267994;28;20031;-78
2022/04/06 04:24:54;;;;;;;16.50;4.25;;;;;;;9.14;100.00;100418.34;5267958;28;20480;-78
2022/04/06 04:27:24;;;;;;;12.98;3.90;;;;;;;9.16;100.00;100409.13;5270772;28;20028;-78
2022/04/06 04:29:55;;;;;;;18.63;3.65;;;;;;;9.13;100.00;100413.97;5282763;28;20020;-77
2022/04/06 04:32:26;;;;;;;16.58;3.17;;;;;;;9.11;100.00;100406.13;5272600;28;20047;-78
2022/04/06 04:34:56;;;;;;;17.48;4.15;;;;;;;9.14;100.00;100400.44;5258543;28;20028;-76
2022/04/06 04:37:27;;;;;;;14.65;3.40;;;;;;;9.17;100.00;100408.13;5279631;28;20016;-79
2022/04/06 04:39:58;;;;;;;19.13;5.32;;;;;;;9.18;100.00;100406.28;5247604;28;20472;-79
2022/04/06 04:42:28;;;;;;;21.25;3.58;;;;;;;9.08;100.00;100415.28;5267607;28;20024;-78
2022/04/06 04:44:59;;;;;;;19.65;5.07;;;;;;;9.10;100.00;100400.94;5248618;28;20126;-78
2022/04/06 04:47:30;;;;;;;18.92;4.07;;;;;;;9.08;100.00;100412.63;5249555;28;20024;-78
2022/04/06 04:50:03;;;;;;;20.90;5.43;;;;;;;9.07;100.00;100407.44;5268059;28;20130;-78
2022/04/06 04:52:33;;;;;;;19.00;4.35;;;;;;;8.99;100.00;100405.63;5249700;28;20107;-78
2022/04/06 04:55:04;;;;;;;18.27;4.20;;;;;;;8.91;100.00;100400.25;5267363;28;20126;-76
2022/04/06 04:57:35;;;;;;;12.88;3.97;;;;;;;8.92;100.00;100399.25;5249705;28;20288;-83
2022/04/06 05:00:08;;;;;;;18.85;4.43;;;;;;;8.95;100.00;100390.91;5250191;28;20031;-83
2022/04/06 05:02:39;;;;;;;16.58;4.85;;;;;;;8.95;100.00;100395.41;5249727;28;20398;-79
2022/04/06 05:05:10;;;;;;;17.73;3.50;;;;;;;8.87;100.00;100390.88;5243102;28;20032;-78
2022/04/06 05:07:40;;;;;;;21.25;4.60;;;;;;;8.95;100.00;100387.38;5267056;28;20023;-77
2022/04/06 05:10:11;;;;;;;18.33;5.00;;;;;;;8.92;100.00;100385.88;5267306;28;20039;-77
2022/04/06 05:12:42;;;;;;;17.85;3.92;;;;;;;8.86;100.00;100381.19;5267187;28;20027;-76
2022/04/06 05:15:12;;;;;;;23.00;3.70;;;;;;;8.88;100.00;100381.84;5269089;28;20024;-78
2022/04/06 05:17:43;;;;;;;12.80;3.05;;;;;;;8.87;100.00;100390.88;5268961;28;20020;-77
2022/04/06 05:20:13;;;;;;;14.40;2.90;;;;;;;8.92;100.00;100364.47;5272833;28;20039;-79
2022/04/06 05:22:44;;;;;;;16.75;3.47;;;;;;;8.88;100.00;100384.53;5269781;28;20077;-76
2022/04/06 05:25:14;;;;;;;12.90;3.03;;;;;;;8.92;100.00;100377.84;5266794;28;20108;-76
2022/04/06 05:27:47;;;;;;;13.63;3.28;;;;;;;8.94;100.00;100388.41;5270651;28;20065;-79
2022/04/06 05:30:19;;;;;;;11.95;3.17;;;;;;;8.93;100.00;100378.69;5267875;28;20399;-78
2022/04/06 05:32:52;;;;;;;15.98;3.42;;;;;;;8.93;100.00;100378.69;5267827;28;20115;-79
2022/04/06 05:35:25;;;;;;;29.63;9.35;;;;;;;8.97;100.00;100378.19;5233425;28;20446;-80
2022/04/06 05:37:57;;;;;;;18.45;4.07;;;;;;;8.90;100.00;100392.41;5250117;28;20032;-81
2022/04/06 05:40:28;;;;;;;42.10;16.15;;;;;;;8.89;100.00;100390.75;5248299;28;20479;-81
2022/04/06 05:42:59;;;;;;;15.73;5.22;;;;;;;8.93;100.00;100395.56;5249592;28;20036;-80
2022/04/06 05:45:29;;;;;;;10.07;3.30;;;;;;;8.93;100.00;100398.25;5265782;28;20042;-81
2022/04/06 05:48:00;;;;;;;10.82;3.75;;;;;;;8.95;100.00;100398.94;5248663;28;20059;-79
2022/04/06 05:50:30;;;;;;;21.55;3.80;;;;;;;8.91;100.00;100397.59;5248607;28;20070;-80
2022/04/06 05:53:01;;;;;;;9.48;3.53;;;;;;;8.79;100.00;100399.75;5265796;28;20486;-81
2022/04/06 05:55:31;;;;;;;19.15;4.38;;;;;;;8.72;100.00;100398.72;5248284;28;20540;-79
2022/04/06 05:58:02;;;;;;;14.02;3.63;;;;;;;8.79;100.00;100397.06;5266855;28;20063;-80
2022/04/06 06:00:32;;;;;;;17.38;3.90;;;;;;;8.78;100.00;100394.53;5267279;28;20031;-80
2022/04/06 06:03:03;;;;;;;14.13;3.45;;;;;;;8.78;100.00;100397.22;5249153;28;20034;-80
2022/04/06 06:05:34;;;;;;;16.10;4.32;;;;;;;8.75;100.00;100394.91;5240819;28;20031;-80
2022/04/06 06:08:05;;;;;;;15.48;4.97;;;;;;;8.72;100.00;100379.16;5266848;28;20032;-80
2022/04/06 06:10:37;;;;;;;19.35;3.88;;;;;;;8.75;100.00;100397.56;5249118;28;20353;-80
2022/04/06 06:13:07;;;;;;;14.48;3.97;;;;;;;8.81;100.00;100391.56;5266600;28;20468;-80
2022/04/06 06:15:38;;;;;;;20.13;4.38;;;;;;;8.75;100.00;100389.56;5232150;28;20023;-81
2022/04/06 06:18:08;;;;;;;20.95;4.47;;;;;;;8.85;100.00;100390.22;5267070;28;20042;-81
2022/04/06 06:20:39;;;;;;;30.50;5.13;;;;;;;8.93;100.00;100374.16;5249439;28;20063;-79
2022/04/06 06:23:09;;;;;;;14.20;3.38;;;;;;;8.96;100.00;100375.69;5232646;28;20028;-80
2022/04/06 06:25:40;;;;;;;22.80;5.60;;;;;;;8.95;100.00;100372.16;5249468;28;20475;-78
2022/04/06 06:28:10;;;;;;;13.32;4.65;;;;;;;8.88;100.00;100360.44;5268224;28;20024;-79
2022/04/06 06:30:41;;;;;;;12.38;3.22;;;;;;;8.95;100.00;100355.28;5267841;28;20035;-80
2022/04/06 06:33:12;;;;;;;19.65;4.00;;;;;;;8.96;100.00;100349.75;5249631;28;20080;-77
2022/04/06 06:35:43;;;;;;;12.20;3.17;;;;;;;9.01;100.00;100352.78;5252889;28;20012;-80
2022/04/06 06:38:13;;;;;;;10.82;2.67;;;;;;;8.95;100.00;100352.63;5267945;28;20031;-79
2022/04/06 06:40:44;;;;;;;12.23;2.78;;;;;;;9.07;100.00;100348.56;5246732;28;20024;-80
2022/04/06 06:43:15;;;;;;;10.27;2.83;;;;;;;9.06;100.00;100334.38;5233584;28;20024;-80
2022/04/06 06:45:46;;;;;;;18.20;3.08;;;;;;;9.26;100.00;100331.34;5232553;28;20031;-79
2022/04/06 06:48:16;;;;;;;10.43;2.78;;;;;;;9.36;100.00;100328.47;5233376;28;20027;-80
2022/04/06 06:50:47;;;;;;;10.48;2.33;;;;;;;9.35;100.00;100333.00;5250012;28;20391;-80
2022/04/06 06:53:17;;;;;;;11.55;2.38;;;;;;;9.29;100.00;100334.50;5250331;28;20074;-80
2022/04/06 06:55:47;;;;;;;10.75;2.60;;;;;;;9.20;100.00;100340.03;5249957;28;20387;-80
2022/04/06 06:58:18;;;;;;;10.82;2.45;;;;;;;9.31;100.00;100345.03;5250650;28;20031;-80
2022/04/06 07:00:49;;;;;;;10.13;2.50;;;;;;;9.31;100.00;100337.84;5269437;28;20035;-80
2022/04/06 07:03:19;;;;;;;11.00;2.20;;;;;;;9.33;100.00;100340.34;5276577;28;20498;-81
2022/04/06 07:05:49;;;;;;;9.57;2.25;;;;;;;9.26;100.00;100334.84;5269518;28;20035;-80
2022/04/06 07:08:20;;;;;;;12.10;1.98;;;;;;;9.40;100.00;100337.84;5242954;28;20383;-81
2022/04/06 07:10:51;;;;;;;5.40;2.13;;;;;;;9.37;100.00;100339.00;5242446;28;20395;-80
2022/04/06 07:13:21;;;;;;;14.15;2.22;;;;;;;9.42;100.00;100344.69;5276819;28;20438;-80
2022/04/06 07:15:52;;;;;;;8.68;2.65;;;;;;;9.44;100.00;100336.47;5258556;28;20047;-80
2022/04/06 07:18:23;;;;;;;9.02;2.20;;;;;;;9.39;100.00;100342.34;5277795;28;20048;-79
2022/04/06 07:20:53;;;;;;;6.85;2.10;;;;;;;9.44;100.00;100340.00;5276927;28;20028;-79
2022/04/06 07:23:24;;;;;;;9.70;2.13;;;;;;;9.46;100.00;100343.34;5239091;28;20524;-79
2022/04/06 07:25:54;;;;;;;12.15;2.78;;;;;;;9.41;100.00;100334.16;5253774;28;20483;-82
2022/04/06 07:28:25;;;;;;;6.80;2.72;;;;;;;9.25;100.00;100332.34;5238416;28;20032;-81
2022/04/06 07:30:56;;;;;;;12.23;3.08;;;;;;;9.28;100.00;100334.66;5239774;28;20028;-79
2022/04/06 07:33:26;;;;;;;12.05;2.30;;;;;;;9.17;100.00;100335.84;5273317;28;20027;-79
2022/04/06 07:35:56;;;;;;;22.90;7.20;;;;;;;9.29;100.00;100331.00;5226626;28;20024;-80
2022/04/06 07:38:27;;;;;;;8.35;2.08;;;;;;;9.21;100.00;100323.81;5272465;28;20117;-79
2022/04/06 07:40:58;;;;;;;11.32;2.90;;;;;;;9.29;100.00;100331.84;5234406;28;20108;-81
2022/04/06 07:43:28;;;;;;;11.27;2.30;;;;;;;9.26;100.00;100328.66;5272476;28;20024;-79
2022/04/06 07:45:58;;;;;;;8.25;1.73;;;;;;;9.21;100.00;100323.81;5253426;28;20027;-79
2022/04/06 07:48:30;;;;;;;10.85;2.35;;;;;;;9.29;100.00;100320.28;5254866;28;20024;-80
2022/04/06 07:51:01;;;;;;;7.88;1.90;;;;;;;9.33;100.00;100318.91;5254797;28;20024;-82
2022/04/06 07:53:31;;;;;;;8.88;2.25;;;;;;;9.48;100.00;100317.22;5254928;28;20031;-80
2022/04/06 07:56:02;;;;;;;10.52;2.20;;;;;;;9.59;100.00;100308.00;5253081;28;20419;-81
2022/04/06 07:58:34;;;;;;;7.50;2.45;;;;;;;9.61;100.00;100311.31;5273097;28;20035;-82
2022/04/06 08:01:08;;;;;;;7.45;2.22;;;;;;;9.70;100.00;100306.78;5254032;28;20087;-81
2022/04/06 08:03:38;;;;;;;12.10;2.58;;;;;;;9.69;100.00;100313.97;5255283;28;20030;-81
2022/04/06 08:06:08;;;;;;;9.90;1.95;;;;;;;9.66;100.00;100306.28;5232913;28;20569;-82
2022/04/06 08:08:39;;;;;;;9.57;1.98;;;;;;;9.77;100.00;100291.66;5257895;28;20047;-81
2022/04/06 08:11:09;;;;;;;16.60;3.65;;;;;;;9.86;100.00;100299.50;5257253;28;20020;-79
2022/04/06 08:13:40;;;;;;;17.05;2.00;;;;;;;9.65;100.00;100299.25;5255199;28;20060;-78
2022/04/06 08:16:10;;;;;;;7.78;2.38;;;;;;;9.87;100.00;100305.69;5252912;28;20052;-78
2022/04/06 08:18:41;;;;;;;11.45;2.55;;;;;;;10.01;100.00;100299.59;5272284;28;20076;-78
2022/04/06 08:21:12;;;;;;;8.20;2.10;;;;;;;10.08;100.00;100303.22;5272609;28;20023;-79
2022/04/06 08:23:42;;;;;;;8.48;2.20;;;;;;;9.97;100.00;100292.91;5273166;28;20027;-78
2022/04/06 08:26:12;;;;;;;12.95;1.92;;;;;;;9.90;100.00;100304.50;5271541;28;20019;-78
2022/04/06 08:28:44;;;;;;;9.93;2.00;;;;;;;9.94;100.00;100300.44;5272515;28;20107;-78
2022/04/06 08:31:15;;;;;;;22.38;2.22;;;;;;;10.01;100.00;100298.75;5253968;28;20035;-78
2022/04/06 08:33:45;;;;;;;5.68;1.70;;;;;;;10.11;100.00;100300.19;5250218;28;20104;-78
2022/04/06 08:36:16;;;;;;;12.32;2.15;;;;;;;9.98;100.00;100299.09;5260682;28;20114;-78
2022/04/06 08:38:47;;;;;;;9.50;2.47;;;;;;;10.01;100.00;100304.94;5254283;28;20047;-78
2022/04/06 08:41:24;;;;;;;9.20;2.35;;;;;;;9.98;100.00;100302.59;5268845;28;20028;-78
2022/04/06 08:43:56;;;;;;;4.68;1.70;;;;;;;9.95;100.00;100289.56;5271702;28;20020;-78
2022/04/06 08:46:32;;;;;;;8.85;2.05;;;;;;;9.99;100.00;100298.06;5273561;28;20043;-78
2022/04/06 08:49:03;;;;;;;13.20;2.67;;;;;;;9.96;100.00;100291.25;5254294;28;20507;-79
2022/04/06 08:51:34;;;;;;;11.75;2.90;;;;;;;10.02;100.00;100281.66;5271654;28;20105;-78
2022/04/06 08:54:05;;;;;;;9.80;2.25;;;;;;;9.94;100.00;100287.91;5253715;28;20032;-78
2022/04/06 08:56:35;;;;;;;9.70;2.53;;;;;;;10.06;100.00;100291.03;5252846;28;20073;-79
2022/04/06 08:59:07;;;;;;;9.45;2.05;;;;;;;10.08;100.00;100286.31;5271802;28;20318;-79
2022/04/06 09:01:37;;;;;;;6.15;1.83;;;;;;;10.19;100.00;100285.06;5272549;28;20028;-80
2022/04/06 09:04:08;;;;;;;11.45;2.47;;;;;;;10.08;100.00;100284.47;5247386;28;20024;-81
2022/04/06 09:06:41;;;;;;;13.63;2.25;;;;;;;10.10;100.00;100277.09;5268276;28;20491;-81
2022/04/06 09:09:11;;;;;;;6.07;2.55;;;;;;;10.23;100.00;100289.91;5251368;28;20048;-79
2022/04/06 09:11:43;;;;;;;7.80;2.05;;;;;;;10.23;100.00;100278.34;5272659;28;20023;-80
2022/04/06 09:14:14;;;;;;;10.10;1.98;;;;;;;10.16;100.00;100272.88;5269585;28;20058;-78
2022/04/06 09:16:45;;;;;;;14.30;2.35;;;;;;;10.19;100.00;100277.88;5268716;28;20027;-79
2022/04/06 09:19:17;;;;;;;10.20;1.65;;;;;;;10.25;100.00;100269.16;5250652;28;20379;-79
2022/04/06 09:21:47;;;;;;;7.35;2.03;;;;;;;10.35;100.00;100277.81;5251318;28;20505;-81
2022/04/06 09:24:19;;;;;;;10.05;1.88;;;;;;;10.48;100.00;100266.47;5233404;28;20032;-81
2022/04/06 09:27:09;;;;;;;12.63;2.28;;;;;;;10.59;100.00;100271.41;5250181;28;20024;-81
2022/04/06 09:29:39;;;;;;;8.65;1.80;;;;;;;10.70;100.00;100264.78;5268631;28;20036;-80
2022/04/06 09:32:10;;;;;;;4.38;1.55;;;;;;;11.09;100.00;100264.59;5268782;28;20027;-81
2022/04/06 09:34:42;;;;;;;7.90;1.63;;;;;;;11.19;100.00;100268.81;5238604;28;20035;-81
2022/04/06 09:37:32;;;;;;;10.07;1.75;;;;;;;11.46;100.00;100270.06;5231702;28;20028;-81
2022/04/06 09:40:28;;;;;;;10.68;1.88;;;;;;;11.70;100.00;100277.81;5247876;28;20032;-81
2022/04/06 09:42:58;;;;;;;14.02;1.98;;;;;;;11.32;100.00;100271.72;5269222;28;20026;-81
2022/04/06 09:48:18;;;;;;;7.53;2.30;;;;;;;11.18;100.00;100277.91;5244112;28;20063;-80
2022/04/06 09:51:09;;;;;;;8.77;1.70;;;;;;;11.12;100.00;100264.19;5251488;28;20507;-81
2022/04/06 09:53:40;;;;;;;8.98;2.13;;;;;;;11.04;100.00;100269.63;5253168;28;20028;-79
2022/04/06 09:56:11;;;;;;;11.13;2.03;;;;;;;11.20;100.00;100265.97;5235305;28;20111;-83
2022/04/06 09:58:44;;;;;;;9.75;1.92;;;;;;;11.09;100.00;100256.53;5254989;28;20023;-82
2022/04/06 10:01:16;;;;;;;6.40;1.90;;;;;;;11.05;100.00;100259.75;5269470;28;20483;-82
2022/04/06 10:03:52;;;;;;;6.93;2.60;;;;;;;11.23;100.00;100262.06;5249623;28;20050;-82
2022/04/06 10:06:22;;;;;;;7.97;1.67;;;;;;;11.40;100.00;100247.47;5265865;28;20035;-82
2022/04/06 10:08:53;;;;;;;5.30;2.15;;;;;;;11.40;100.00;100252.81;5252336;28;20020;-82
2022/04/06 10:11:24;;;;;;;6.43;2.60;;;;;;;11.27;100.00;100253.47;5251927;28;20415;-82
2022/04/06 10:13:56;;;;;;;7.53;2.17;;;;;;;11.12;100.00;100253.47;5269782;28;20027;-82
2022/04/06 10:16:27;;;;;;;8.25;2.50;;;;;;;11.12;100.00;100258.81;5251819;28;20031;-82
2022/04/06 10:19:00;;;;;;;16.35;2.42;;;;;;;10.98;100.00;100254.28;5270831;28;20026;-82
2022/04/06 10:21:53;;;;;;;5.07;2.10;;;;;;;11.05;100.00;100255.22;5236471;28;20099;-83
2022/04/06 10:25:02;;;;;;;11.45;2.80;;;;;;;10.89;100.00;100250.88;5269665;28;20028;-82
2022/04/06 10:27:35;;;;;;;8.75;2.58;;;;;;;10.72;100.00;100240.44;5273231;28;20050;-82
2022/04/06 10:30:06;;;;;;;10.32;3.78;;;;;;;10.81;100.00;100248.25;5259591;28;20024;-82
2022/04/06 10:32:39;;;;;;;9.02;3.03;;;;;;;10.61;100.00;100244.41;5274442;28;20119;-82
2022/04/06 10:35:30;;;;;;;7.35;3.03;;;;;;;10.66;100.00;100241.19;5240653;28;20031;-82
2022/04/06 10:38:20;;;;;;;10.35;2.90;;;;;;;10.55;100.00;100242.47;5239852;28;20035;-82
2022/04/06 10:41:10;;;;;;;8.68;2.85;;;;;;;10.52;100.00;100232.91;5275023;28;20445;-82
2022/04/06 10:43:40;;;;;;;9.50;3.47;;;;;;;10.61;100.00;100236.34;5261037;28;20024;-83
2022/04/06 10:46:16;;;;;;;10.90;3.15;;;;;;;10.69;100.00;100241.63;5279302;28;20032;-83
2022/04/06 10:49:09;;;;;;;5.68;3.20;;;;;;;10.69;100.00;100230.91;5261455;28;20074;-83
2022/04/06 10:51:42;;;;;;;10.18;3.45;;;;;;;10.78;100.00;100221.75;5260783;28;20035;-83
2022/04/06 10:54:12;;;;;;;11.27;4.22;;;;;;;10.58;100.00;100225.97;5278828;28;20473;-82
2022/04/06 10:57:01;;;;;;;10.00;3.05;;;;;;;10.54;100.00;100219.31;5254343;28;20029;-82
2022/04/06 10:59:32;;;;;;;11.65;3.08;;;;;;;10.62;100.00;100211.19;5268557;28;20463;-80
2022/04/06 11:02:16;;;;;;;10.48;3.20;;;;;;;10.71;100.00;100210.13;5256469;28;20048;-82
2022/04/06 11:04:48;;;;;;;7.90;3.00;;;;;;;10.79;100.00;100206.50;5251726;28;20589;-79
2022/04/06 11:10:06;;;;;;;7.72;3.45;;;;;;;10.79;100.00;100210.03;5257461;28;20097;-78
2022/04/06 11:10:12;;;;;;;9.45;3.60;;;;;;;10.94;100.00;100209.19;5274878;28;20039;-83
2022/04/06 11:13:20;;;;;;;12.55;5.25;;;;;;;10.98;100.00;100197.91;5277517;28;20020;-82
2022/04/06 11:15:51;;;;;;;8.30;4.18;;;;;;;10.99;100.00;100196.88;5275445;28;20020;-82
2022/04/06 11:19:13;;;;;;;9.25;3.47;;;;;;;10.99;100.00;100202.25;5257883;28;20050;-82
2022/04/06 11:22:03;;;;;;;8.77;3.35;;;;;;;11.00;100.00;100198.56;5254871;28;20055;-82
2022/04/06 11:24:36;;;;;;;7.93;3.58;;;;;;;10.91;100.00;100199.69;5256669;28;20097;-82
2022/04/06 11:27:07;;;;;;;11.15;3.55;;;;;;;10.98;100.00;100192.53;5256672;28;20020;-82
2022/04/06 11:29:37;;;;;;;7.90;3.10;;;;;;;10.95;100.00;100190.25;5274985;28;20020;-82
2022/04/06 11:32:08;;;;;;;7.50;3.15;;;;;;;10.95;100.00;100187.56;5275778;28;20028;-83
2022/04/06 11:34:40;;;;;;;6.82;2.60;;;;;;;11.04;100.00;100193.66;5228143;28;20093;-85
2022/04/06 11:37:10;;;;;;;12.85;3.28;;;;;;;10.93;100.00;100189.59;5250942;28;20099;-83
2022/04/06 11:39:41;;;;;;;11.27;3.55;;;;;;;10.88;100.00;100182.09;5271736;28;20087;-83
2022/04/06 11:42:17;;;;;;;8.40;3.08;;;;;;;10.85;100.00;100177.09;5253035;28;20162;-84
2022/04/06 11:44:47;;;;;;;7.70;2.75;;;;;;;10.95;100.00;100178.69;5256732;28;20039;-82
2022/04/06 11:47:30;;;;;;;8.15;2.60;;;;;;;10.91;100.00;100174.69;5240485;28;20032;-82
2022/04/06 11:50:03;;;;;;;9.73;3.17;;;;;;;10.87;100.00;100174.22;5255873;28;20020;-82